sensor_id;sensor_type;location;lat;lon;timestamp;P1;durP1;ratioP1;P2;durP2;ratioP2
70270;SDS011;57680;54.292;18.598;2023-04-19T00:02:02;6.97;;;2.03;;
70270;SDS011;57680;54.292;18.598;2023-04-19T00:04:27;5.68;;;2.15;;
70270;SDS011;57680;54.292;18.598;2023-04-19T00:06:53;8.57;;;2.37;;
70270;SDS011;57680;54.292;18.598;2023-04-19T00:09:18;8.10;;;2.33;;
70270;SDS011;57680;54.292;18.598;2023-04-19T00:11:43;8.27;;;2.60;;
70270;SDS011;57680;54.292;18.598;2023-04-19T00:14:09;5.57;;;1.70;;
70270;SDS011;57680;54.292;18.598;2023-04-19T00:16:34;6.73;;;2.73;;
70270;SDS011;57680;54.292;18.598;2023-04-19T00:19:00;8.87;;;2.33;;
70270;SDS011;57680;54.292;18.598;2023-04-19T00:21:26;10.27;;;3.37;;
70270;SDS011;57680;54.292;18.598;2023-04-19T00:23:51;11.67;;;2.30;;
70270;SDS011;57680;54.292;18.598;2023-04-19T00:26:17;11.50;;;2.28;;
70270;SDS011;57680;54.292;18.598;2023-04-19T00:28:42;8.37;;;2.40;;
70270;SDS011;57680;54.292;18.598;2023-04-19T00:31:07;9.00;;;2.90;;
70270;SDS011;57680;54.292;18.598;2023-04-19T00:33:33;9.60;;;2.50;;
70270;SDS011;57680;54.292;18.598;2023-04-19T00:35:58;6.33;;;1.90;;
70270;SDS011;57680;54.292;18.598;2023-04-19T00:38:24;7.97;;;2.00;;
70270;SDS011;57680;54.292;18.598;2023-04-19T00:40:49;10.13;;;3.13;;
70270;SDS011;57680;54.292;18.598;2023-04-19T00:43:18;8.73;;;2.53;;
70270;SDS011;57680;54.292;18.598;2023-04-19T00:45:43;7.90;;;2.20;;
70270;SDS011;57680;54.292;18.598;2023-04-19T00:48:09;10.50;;;2.30;;
70270;SDS011;57680;54.292;18.598;2023-04-19T00:50:36;4.85;;;2.03;;
70270;SDS011;57680;54.292;18.598;2023-04-19T00:53:01;10.60;;;2.33;;
70270;SDS011;57680;54.292;18.598;2023-04-19T00:55:27;8.63;;;2.70;;
70270;SDS011;57680;54.292;18.598;2023-04-19T00:57:53;16.10;;;2.85;;
70270;SDS011;57680;54.292;18.598;2023-04-19T01:00:18;10.77;;;2.40;;
70270;SDS011;57680;54.292;18.598;2023-04-19T01:02:44;8.68;;;2.25;;
70270;SDS011;57680;54.292;18.598;2023-04-19T01:05:10;9.50;;;2.57;;
70270;SDS011;57680;54.292;18.598;2023-04-19T01:07:35;6.00;;;2.03;;
70270;SDS011;57680;54.292;18.598;2023-04-19T01:10:00;7.87;;;2.20;;
70270;SDS011;57680;54.292;18.598;2023-04-19T01:12:27;11.30;;;2.63;;
70270;SDS011;57680;54.292;18.598;2023-04-19T01:14:53;8.27;;;2.05;;
70270;SDS011;57680;54.292;18.598;2023-04-19T01:17:18;5.53;;;2.30;;
70270;SDS011;57680;54.292;18.598;2023-04-19T01:19:44;10.93;;;2.80;;
70270;SDS011;57680;54.292;18.598;2023-04-19T01:22:19;8.33;;;2.33;;
70270;SDS011;57680;54.292;18.598;2023-04-19T01:24:45;7.47;;;2.65;;
70270;SDS011;57680;54.292;18.598;2023-04-19T01:27:11;8.27;;;1.73;;
70270;SDS011;57680;54.292;18.598;2023-04-19T01:29:36;8.00;;;2.40;;
70270;SDS011;57680;54.292;18.598;2023-04-19T01:32:02;6.57;;;2.27;;
70270;SDS011;57680;54.292;18.598;2023-04-19T01:34:27;9.65;;;2.45;;
70270;SDS011;57680;54.292;18.598;2023-04-19T01:36:53;6.50;;;2.00;;
70270;SDS011;57680;54.292;18.598;2023-04-19T01:39:18;7.60;;;2.20;;
70270;SDS011;57680;54.292;18.598;2023-04-19T01:41:43;6.47;;;2.20;;
70270;SDS011;57680;54.292;18.598;2023-04-19T01:44:09;6.05;;;2.10;;
70270;SDS011;57680;54.292;18.598;2023-04-19T01:46:34;8.00;;;2.50;;
70270;SDS011;57680;54.292;18.598;2023-04-19T01:49:00;7.30;;;2.10;;
70270;SDS011;57680;54.292;18.598;2023-04-19T01:51:25;11.70;;;2.43;;
70270;SDS011;57680;54.292;18.598;2023-04-19T01:53:51;9.20;;;2.75;;
70270;SDS011;57680;54.292;18.598;2023-04-19T01:56:16;7.50;;;2.00;;
70270;SDS011;57680;54.292;18.598;2023-04-19T01:58:42;8.93;;;2.57;;
70270;SDS011;57680;54.292;18.598;2023-04-19T02:01:08;10.10;;;2.97;;
70270;SDS011;57680;54.292;18.598;2023-04-19T02:03:33;10.20;;;2.40;;
70270;SDS011;57680;54.292;18.598;2023-04-19T02:05:58;11.93;;;3.03;;
70270;SDS011;57680;54.292;18.598;2023-04-19T02:08:24;8.73;;;2.67;;
70270;SDS011;57680;54.292;18.598;2023-04-19T02:10:49;5.97;;;2.17;;
70270;SDS011;57680;54.292;18.598;2023-04-19T02:13:14;8.87;;;2.27;;
70270;SDS011;57680;54.292;18.598;2023-04-19T02:15:40;7.57;;;3.07;;
70270;SDS011;57680;54.292;18.598;2023-04-19T02:18:05;8.37;;;2.10;;
70270;SDS011;57680;54.292;18.598;2023-04-19T02:20:30;10.57;;;2.53;;
70270;SDS011;57680;54.292;18.598;2023-04-19T02:22:56;8.23;;;2.77;;
70270;SDS011;57680;54.292;18.598;2023-04-19T02:25:21;12.55;;;2.80;;
70270;SDS011;57680;54.292;18.598;2023-04-19T02:27:46;8.03;;;2.97;;
70270;SDS011;57680;54.292;18.598;2023-04-19T02:30:12;8.83;;;2.67;;
70270;SDS011;57680;54.292;18.598;2023-04-19T02:32:37;7.67;;;2.60;;
70270;SDS011;57680;54.292;18.598;2023-04-19T02:35:03;10.17;;;2.17;;
70270;SDS011;57680;54.292;18.598;2023-04-19T02:37:29;8.15;;;2.78;;
70270;SDS011;57680;54.292;18.598;2023-04-19T02:39:54;8.43;;;2.67;;
70270;SDS011;57680;54.292;18.598;2023-04-19T02:42:20;9.90;;;2.88;;
70270;SDS011;57680;54.292;18.598;2023-04-19T02:44:45;8.77;;;1.80;;
70270;SDS011;57680;54.292;18.598;2023-04-19T02:47:11;7.07;;;2.70;;
70270;SDS011;57680;54.292;18.598;2023-04-19T02:49:36;8.33;;;2.83;;
70270;SDS011;57680;54.292;18.598;2023-04-19T02:52:01;7.23;;;2.30;;
70270;SDS011;57680;54.292;18.598;2023-04-19T02:54:27;10.90;;;3.17;;
70270;SDS011;57680;54.292;18.598;2023-04-19T02:56:52;8.60;;;2.73;;
70270;SDS011;57680;54.292;18.598;2023-04-19T02:59:18;7.80;;;2.27;;
70270;SDS011;57680;54.292;18.598;2023-04-19T03:01:43;6.43;;;2.10;;
70270;SDS011;57680;54.292;18.598;2023-04-19T03:04:09;13.07;;;3.20;;
70270;SDS011;57680;54.292;18.598;2023-04-19T03:06:34;13.43;;;3.17;;
70270;SDS011;57680;54.292;18.598;2023-04-19T03:08:59;7.53;;;2.60;;
70270;SDS011;57680;54.292;18.598;2023-04-19T03:11:25;8.97;;;2.97;;
70270;SDS011;57680;54.292;18.598;2023-04-19T03:13:50;7.90;;;2.75;;
70270;SDS011;57680;54.292;18.598;2023-04-19T03:16:16;7.27;;;2.63;;
70270;SDS011;57680;54.292;18.598;2023-04-19T03:18:41;12.20;;;2.57;;
70270;SDS011;57680;54.292;18.598;2023-04-19T03:21:07;9.60;;;2.27;;
70270;SDS011;57680;54.292;18.598;2023-04-19T03:23:32;10.55;;;2.78;;
70270;SDS011;57680;54.292;18.598;2023-04-19T03:25:58;9.00;;;3.73;;
70270;SDS011;57680;54.292;18.598;2023-04-19T03:28:23;9.97;;;3.03;;
70270;SDS011;57680;54.292;18.598;2023-04-19T03:30:49;8.70;;;3.30;;
70270;SDS011;57680;54.292;18.598;2023-04-19T03:33:14;9.43;;;3.47;;
70270;SDS011;57680;54.292;18.598;2023-04-19T03:35:39;12.03;;;3.17;;
70270;SDS011;57680;54.292;18.598;2023-04-19T03:38:05;11.20;;;2.43;;
70270;SDS011;57680;54.292;18.598;2023-04-19T03:40:35;8.30;;;1.90;;
70270;SDS011;57680;54.292;18.598;2023-04-19T03:43:01;5.68;;;2.20;;
70270;SDS011;57680;54.292;18.598;2023-04-19T03:45:27;6.73;;;2.50;;
70270;SDS011;57680;54.292;18.598;2023-04-19T03:47:52;6.67;;;2.30;;
70270;SDS011;57680;54.292;18.598;2023-04-19T03:50:18;8.20;;;3.17;;
70270;SDS011;57680;54.292;18.598;2023-04-19T03:52:43;6.80;;;2.80;;
70270;SDS011;57680;54.292;18.598;2023-04-19T03:55:09;6.60;;;2.23;;
70270;SDS011;57680;54.292;18.598;2023-04-19T03:57:35;7.65;;;2.88;;
70270;SDS011;57680;54.292;18.598;2023-04-19T04:00:00;7.90;;;3.30;;
70270;SDS011;57680;54.292;18.598;2023-04-19T04:02:25;8.27;;;3.03;;
70270;SDS011;57680;54.292;18.598;2023-04-19T04:04:54;10.13;;;3.13;;
70270;SDS011;57680;54.292;18.598;2023-04-19T04:07:20;7.28;;;2.90;;
70270;SDS011;57680;54.292;18.598;2023-04-19T04:09:45;7.93;;;2.87;;
70270;SDS011;57680;54.292;18.598;2023-04-19T04:12:11;16.17;;;4.88;;
70270;SDS011;57680;54.292;18.598;2023-04-19T04:14:36;15.30;;;5.97;;
70270;SDS011;57680;54.292;18.598;2023-04-19T04:17:02;9.23;;;3.60;;
70270;SDS011;57680;54.292;18.598;2023-04-19T04:19:27;6.63;;;2.60;;
70270;SDS011;57680;54.292;18.598;2023-04-19T04:21:54;12.03;;;3.60;;
70270;SDS011;57680;54.292;18.598;2023-04-19T04:24:19;9.57;;;3.57;;
70270;SDS011;57680;54.292;18.598;2023-04-19T04:26:44;8.37;;;2.90;;
70270;SDS011;57680;54.292;18.598;2023-04-19T04:29:10;10.77;;;3.85;;
70270;SDS011;57680;54.292;18.598;2023-04-19T04:31:35;7.50;;;2.97;;
70270;SDS011;57680;54.292;18.598;2023-04-19T04:34:01;10.33;;;3.70;;
70270;SDS011;57680;54.292;18.598;2023-04-19T04:36:27;14.80;;;3.65;;
70270;SDS011;57680;54.292;18.598;2023-04-19T04:38:52;13.97;;;4.33;;
70270;SDS011;57680;54.292;18.598;2023-04-19T04:41:17;9.33;;;3.37;;
70270;SDS011;57680;54.292;18.598;2023-04-19T04:43:43;8.47;;;2.43;;
70270;SDS011;57680;54.292;18.598;2023-04-19T04:46:08;7.75;;;2.75;;
70270;SDS011;57680;54.292;18.598;2023-04-19T04:48:34;9.87;;;3.30;;
70270;SDS011;57680;54.292;18.598;2023-04-19T04:50:59;8.13;;;3.43;;
70270;SDS011;57680;54.292;18.598;2023-04-19T04:53:27;11.00;;;3.30;;
70270;SDS011;57680;54.292;18.598;2023-04-19T04:55:53;10.27;;;3.88;;
70270;SDS011;57680;54.292;18.598;2023-04-19T04:58:19;8.50;;;2.85;;
70270;SDS011;57680;54.292;18.598;2023-04-19T05:00:44;8.57;;;2.80;;
70270;SDS011;57680;54.292;18.598;2023-04-19T05:03:10;12.15;;;3.80;;
70270;SDS011;57680;54.292;18.598;2023-04-19T05:05:35;10.53;;;3.97;;
70270;SDS011;57680;54.292;18.598;2023-04-19T05:08:01;10.20;;;3.50;;
70270;SDS011;57680;54.292;18.598;2023-04-19T05:10:27;10.05;;;3.85;;
70270;SDS011;57680;54.292;18.598;2023-04-19T05:12:53;12.40;;;3.70;;
70270;SDS011;57680;54.292;18.598;2023-04-19T05:15:18;9.57;;;3.40;;
70270;SDS011;57680;54.292;18.598;2023-04-19T05:17:44;11.15;;;4.15;;
70270;SDS011;57680;54.292;18.598;2023-04-19T05:20:09;10.20;;;2.90;;
70270;SDS011;57680;54.292;18.598;2023-04-19T05:22:35;12.57;;;3.23;;
70270;SDS011;57680;54.292;18.598;2023-04-19T05:25:00;8.60;;;2.93;;
70270;SDS011;57680;54.292;18.598;2023-04-19T05:27:25;9.70;;;3.40;;
70270;SDS011;57680;54.292;18.598;2023-04-19T05:29:51;9.03;;;3.43;;
70270;SDS011;57680;54.292;18.598;2023-04-19T05:32:16;10.20;;;3.30;;
70270;SDS011;57680;54.292;18.598;2023-04-19T05:34:42;8.93;;;3.60;;
70270;SDS011;57680;54.292;18.598;2023-04-19T05:37:07;7.70;;;3.10;;
70270;SDS011;57680;54.292;18.598;2023-04-19T05:39:33;8.30;;;3.33;;
70270;SDS011;57680;54.292;18.598;2023-04-19T05:41:58;8.73;;;3.07;;
70270;SDS011;57680;54.292;18.598;2023-04-19T05:44:24;8.73;;;2.97;;
70270;SDS011;57680;54.292;18.598;2023-04-19T05:46:49;12.02;;;3.53;;
70270;SDS011;57680;54.292;18.598;2023-04-19T05:49:15;9.10;;;2.67;;
70270;SDS011;57680;54.292;18.598;2023-04-19T05:51:40;10.00;;;2.67;;
70270;SDS011;57680;54.292;18.598;2023-04-19T05:54:05;9.57;;;2.83;;
70270;SDS011;57680;54.292;18.598;2023-04-19T05:56:31;7.97;;;2.67;;
70270;SDS011;57680;54.292;18.598;2023-04-19T05:58:56;12.23;;;3.20;;
70270;SDS011;57680;54.292;18.598;2023-04-19T06:01:22;9.63;;;3.50;;
70270;SDS011;57680;54.292;18.598;2023-04-19T06:03:47;10.48;;;3.22;;
70270;SDS011;57680;54.292;18.598;2023-04-19T06:06:13;14.07;;;3.40;;
70270;SDS011;57680;54.292;18.598;2023-04-19T06:08:38;9.03;;;2.63;;
70270;SDS011;57680;54.292;18.598;2023-04-19T06:11:04;10.70;;;2.90;;
70270;SDS011;57680;54.292;18.598;2023-04-19T06:13:29;9.55;;;3.28;;
70270;SDS011;57680;54.292;18.598;2023-04-19T06:15:55;11.57;;;3.00;;
70270;SDS011;57680;54.292;18.598;2023-04-19T06:18:20;7.53;;;2.33;;
70270;SDS011;57680;54.292;18.598;2023-04-19T06:20:46;15.77;;;4.13;;
70270;SDS011;57680;54.292;18.598;2023-04-19T06:23:11;11.02;;;2.58;;
70270;SDS011;57680;54.292;18.598;2023-04-19T06:25:37;13.43;;;3.00;;
70270;SDS011;57680;54.292;18.598;2023-04-19T06:28:02;12.00;;;3.40;;
70270;SDS011;57680;54.292;18.598;2023-04-19T06:30:28;8.77;;;2.72;;
70270;SDS011;57680;54.292;18.598;2023-04-19T06:32:53;9.70;;;2.77;;
70270;SDS011;57680;54.292;18.598;2023-04-19T06:35:19;14.80;;;2.87;;
70270;SDS011;57680;54.292;18.598;2023-04-19T06:37:44;11.27;;;3.23;;
70270;SDS011;57680;54.292;18.598;2023-04-19T06:40:10;7.65;;;2.78;;
70270;SDS011;57680;54.292;18.598;2023-04-19T06:42:36;7.83;;;2.57;;
70270;SDS011;57680;54.292;18.598;2023-04-19T06:45:02;8.23;;;2.97;;
70270;SDS011;57680;54.292;18.598;2023-04-19T06:47:27;9.45;;;3.17;;
70270;SDS011;57680;54.292;18.598;2023-04-19T06:49:53;7.97;;;2.70;;
70270;SDS011;57680;54.292;18.598;2023-04-19T06:52:19;9.98;;;3.00;;
70270;SDS011;57680;54.292;18.598;2023-04-19T06:54:48;8.30;;;2.83;;
70270;SDS011;57680;54.292;18.598;2023-04-19T06:57:14;7.20;;;2.70;;
70270;SDS011;57680;54.292;18.598;2023-04-19T06:59:40;12.75;;;3.03;;
70270;SDS011;57680;54.292;18.598;2023-04-19T07:02:06;9.50;;;2.87;;
70270;SDS011;57680;54.292;18.598;2023-04-19T07:04:32;11.27;;;3.47;;
70270;SDS011;57680;54.292;18.598;2023-04-19T07:06:57;8.70;;;2.50;;
70270;SDS011;57680;54.292;18.598;2023-04-19T07:09:23;11.77;;;3.00;;
70270;SDS011;57680;54.292;18.598;2023-04-19T07:11:48;9.30;;;2.93;;
70270;SDS011;57680;54.292;18.598;2023-04-19T07:14:14;10.70;;;3.17;;
70270;SDS011;57680;54.292;18.598;2023-04-19T07:16:40;8.87;;;2.50;;
70270;SDS011;57680;54.292;18.598;2023-04-19T07:19:05;9.60;;;2.97;;
70270;SDS011;57680;54.292;18.598;2023-04-19T07:21:31;10.00;;;3.37;;
70270;SDS011;57680;54.292;18.598;2023-04-19T07:23:56;13.43;;;3.17;;
70270;SDS011;57680;54.292;18.598;2023-04-19T07:26:22;9.20;;;2.87;;
70270;SDS011;57680;54.292;18.598;2023-04-19T07:28:47;7.68;;;2.45;;
70270;SDS011;57680;54.292;18.598;2023-04-19T07:31:16;10.53;;;2.93;;
70270;SDS011;57680;54.292;18.598;2023-04-19T07:33:43;11.88;;;3.10;;
70270;SDS011;57680;54.292;18.598;2023-04-19T07:36:08;8.67;;;2.97;;
70270;SDS011;57680;54.292;18.598;2023-04-19T07:38:35;12.00;;;3.20;;
70270;SDS011;57680;54.292;18.598;2023-04-19T07:41:00;13.25;;;3.50;;
70270;SDS011;57680;54.292;18.598;2023-04-19T07:43:28;8.97;;;2.80;;
70270;SDS011;57680;54.292;18.598;2023-04-19T07:45:54;7.70;;;2.33;;
70270;SDS011;57680;54.292;18.598;2023-04-19T07:48:19;10.87;;;3.20;;
70270;SDS011;57680;54.292;18.598;2023-04-19T07:50:45;6.20;;;2.40;;
70270;SDS011;57680;54.292;18.598;2023-04-19T07:53:10;10.67;;;2.93;;
70270;SDS011;57680;54.292;18.598;2023-04-19T07:55:36;6.97;;;2.33;;
70270;SDS011;57680;54.292;18.598;2023-04-19T07:58:02;8.77;;;2.40;;
70270;SDS011;57680;54.292;18.598;2023-04-19T08:00:27;9.37;;;2.77;;
70270;SDS011;57680;54.292;18.598;2023-04-19T08:02:54;7.10;;;2.60;;
70270;SDS011;57680;54.292;18.598;2023-04-19T08:05:20;8.57;;;2.35;;
70270;SDS011;57680;54.292;18.598;2023-04-19T08:07:45;8.90;;;2.83;;
70270;SDS011;57680;54.292;18.598;2023-04-19T08:10:11;10.10;;;2.77;;
70270;SDS011;57680;54.292;18.598;2023-04-19T08:12:37;8.38;;;2.97;;
70270;SDS011;57680;54.292;18.598;2023-04-19T08:15:02;9.97;;;2.63;;
70270;SDS011;57680;54.292;18.598;2023-04-19T08:17:30;9.00;;;2.67;;
70270;SDS011;57680;54.292;18.598;2023-04-19T08:19:55;12.48;;;3.05;;
70270;SDS011;57680;54.292;18.598;2023-04-19T08:22:21;8.80;;;3.03;;
70270;SDS011;57680;54.292;18.598;2023-04-19T08:24:49;9.33;;;2.80;;
70270;SDS011;57680;54.292;18.598;2023-04-19T08:27:15;6.38;;;2.92;;
70270;SDS011;57680;54.292;18.598;2023-04-19T08:29:40;9.67;;;3.10;;
70270;SDS011;57680;54.292;18.598;2023-04-19T08:32:06;10.40;;;2.93;;
70270;SDS011;57680;54.292;18.598;2023-04-19T08:34:35;12.37;;;3.10;;
70270;SDS011;57680;54.292;18.598;2023-04-19T08:37:03;11.77;;;3.60;;
70270;SDS011;57680;54.292;18.598;2023-04-19T08:39:29;9.73;;;3.17;;
70270;SDS011;57680;54.292;18.598;2023-04-19T08:41:55;12.05;;;3.38;;
70270;SDS011;57680;54.292;18.598;2023-04-19T08:44:21;9.57;;;3.28;;
70270;SDS011;57680;54.292;18.598;2023-04-19T08:46:47;12.20;;;2.97;;
70270;SDS011;57680;54.292;18.598;2023-04-19T08:49:14;9.63;;;3.65;;
70270;SDS011;57680;54.292;18.598;2023-04-19T08:51:40;13.20;;;3.70;;
70270;SDS011;57680;54.292;18.598;2023-04-19T08:54:08;8.13;;;3.30;;
70270;SDS011;57680;54.292;18.598;2023-04-19T08:56:34;10.02;;;3.03;;
70270;SDS011;57680;54.292;18.598;2023-04-19T08:59:00;14.27;;;3.60;;
70270;SDS011;57680;54.292;18.598;2023-04-19T09:01:25;9.40;;;3.10;;
70270;SDS011;57680;54.292;18.598;2023-04-19T09:03:51;8.20;;;3.60;;
70270;SDS011;57680;54.292;18.598;2023-04-19T09:06:16;9.07;;;3.30;;
70270;SDS011;57680;54.292;18.598;2023-04-19T09:08:42;10.23;;;3.30;;
70270;SDS011;57680;54.292;18.598;2023-04-19T09:11:07;11.57;;;3.90;;
70270;SDS011;57680;54.292;18.598;2023-04-19T09:13:33;11.27;;;4.33;;
70270;SDS011;57680;54.292;18.598;2023-04-19T09:15:59;9.48;;;3.92;;
70270;SDS011;57680;54.292;18.598;2023-04-19T09:18:25;10.23;;;4.00;;
70270;SDS011;57680;54.292;18.598;2023-04-19T09:20:50;10.23;;;3.90;;
70270;SDS011;57680;54.292;18.598;2023-04-19T09:23:16;13.37;;;3.87;;
70270;SDS011;57680;54.292;18.598;2023-04-19T09:25:52;8.82;;;3.47;;
70270;SDS011;57680;54.292;18.598;2023-04-19T09:28:21;10.93;;;4.13;;
70270;SDS011;57680;54.292;18.598;2023-04-19T09:30:47;9.88;;;3.45;;
70270;SDS011;57680;54.292;18.598;2023-04-19T09:33:12;11.40;;;4.10;;
70270;SDS011;57680;54.292;18.598;2023-04-19T09:35:47;10.27;;;3.87;;
70270;SDS011;57680;54.292;18.598;2023-04-19T09:38:13;11.25;;;4.28;;
70270;SDS011;57680;54.292;18.598;2023-04-19T09:40:39;10.13;;;4.07;;
70270;SDS011;57680;54.292;18.598;2023-04-19T09:43:05;11.03;;;4.47;;
70270;SDS011;57680;54.292;18.598;2023-04-19T09:45:40;11.37;;;4.57;;
70270;SDS011;57680;54.292;18.598;2023-04-19T09:48:07;13.02;;;4.38;;
70270;SDS011;57680;54.292;18.598;2023-04-19T09:50:33;13.77;;;4.70;;
70270;SDS011;57680;54.292;18.598;2023-04-19T09:53:00;11.90;;;4.88;;
70270;SDS011;57680;54.292;18.598;2023-04-19T09:55:26;13.07;;;4.75;;
70270;SDS011;57680;54.292;18.598;2023-04-19T09:57:52;12.97;;;4.87;;
70270;SDS011;57680;54.292;18.598;2023-04-19T10:00:17;12.83;;;4.53;;
70270;SDS011;57680;54.292;18.598;2023-04-19T10:02:44;16.90;;;5.13;;
70270;SDS011;57680;54.292;18.598;2023-04-19T10:05:09;11.85;;;4.93;;
70270;SDS011;57680;54.292;18.598;2023-04-19T10:07:35;12.20;;;4.97;;
70270;SDS011;57680;54.292;18.598;2023-04-19T10:10:01;11.27;;;4.67;;
70270;SDS011;57680;54.292;18.598;2023-04-19T10:12:27;14.13;;;5.35;;
70270;SDS011;57680;54.292;18.598;2023-04-19T10:14:55;11.85;;;4.80;;
70270;SDS011;57680;54.292;18.598;2023-04-19T10:17:21;13.27;;;5.27;;
70270;SDS011;57680;54.292;18.598;2023-04-19T10:19:47;14.40;;;5.15;;
70270;SDS011;57680;54.292;18.598;2023-04-19T10:22:21;17.25;;;6.00;;
70270;SDS011;57680;54.292;18.598;2023-04-19T10:27:35;17.73;;;5.70;;
70270;SDS011;57680;54.292;18.598;2023-04-19T10:30:01;17.45;;;5.95;;
70270;SDS011;57680;54.292;18.598;2023-04-19T10:32:29;16.63;;;6.63;;
70270;SDS011;57680;54.292;18.598;2023-04-19T10:35:01;16.08;;;6.53;;
70270;SDS011;57680;54.292;18.598;2023-04-19T10:37:31;17.55;;;6.10;;
70270;SDS011;57680;54.292;18.598;2023-04-19T10:39:56;17.47;;;5.57;;
70270;SDS011;57680;54.292;18.598;2023-04-19T10:42:21;14.63;;;5.40;;
70270;SDS011;57680;54.292;18.598;2023-04-19T10:47:58;13.25;;;5.28;;
70270;SDS011;57680;54.292;18.598;2023-04-19T10:50:23;15.60;;;6.53;;
70270;SDS011;57680;54.292;18.598;2023-04-19T10:52:48;12.87;;;5.43;;
70270;SDS011;57680;54.292;18.598;2023-04-19T10:55:14;15.10;;;6.18;;
70270;SDS011;57680;54.292;18.598;2023-04-19T11:00:29;19.15;;;6.25;;
70270;SDS011;57680;54.292;18.598;2023-04-19T11:02:55;16.60;;;6.47;;
70270;SDS011;57680;54.292;18.598;2023-04-19T11:05:20;16.52;;;6.28;;
70270;SDS011;57680;54.292;18.598;2023-04-19T11:07:46;19.90;;;6.57;;
70270;SDS011;57680;54.292;18.598;2023-04-19T11:10:11;17.90;;;6.87;;
70270;SDS011;57680;54.292;18.598;2023-04-19T11:12:40;18.97;;;6.57;;
70270;SDS011;57680;54.292;18.598;2023-04-19T11:15:06;15.23;;;5.95;;
70270;SDS011;57680;54.292;18.598;2023-04-19T11:17:32;20.48;;;7.13;;
70270;SDS011;57680;54.292;18.598;2023-04-19T11:19:58;15.97;;;4.80;;
70270;SDS011;57680;54.292;18.598;2023-04-19T11:25:04;17.37;;;6.10;;
70270;SDS011;57680;54.292;18.598;2023-04-19T11:27:40;12.75;;;5.55;;
70270;SDS011;57680;54.292;18.598;2023-04-19T11:30:07;15.43;;;5.75;;
70270;SDS011;57680;54.292;18.598;2023-04-19T11:32:34;20.20;;;7.30;;
70270;SDS011;57680;54.292;18.598;2023-04-19T11:35:03;16.25;;;5.90;;
70270;SDS011;57680;54.292;18.598;2023-04-19T11:37:33;20.93;;;5.53;;
70270;SDS011;57680;54.292;18.598;2023-04-19T11:39:59;13.25;;;5.22;;
70270;SDS011;57680;54.292;18.598;2023-04-19T11:42:24;19.47;;;6.60;;
70270;SDS011;57680;54.292;18.598;2023-04-19T11:44:50;17.70;;;5.93;;
70270;SDS011;57680;54.292;18.598;2023-04-19T11:47:16;15.50;;;6.50;;
70270;SDS011;57680;54.292;18.598;2023-04-19T11:49:42;14.35;;;5.53;;
70270;SDS011;57680;54.292;18.598;2023-04-19T11:52:07;15.17;;;5.93;;
70270;SDS011;57680;54.292;18.598;2023-04-19T11:54:32;16.87;;;6.00;;
70270;SDS011;57680;54.292;18.598;2023-04-19T11:57:07;14.10;;;5.00;;
70270;SDS011;57680;54.292;18.598;2023-04-19T11:59:33;10.77;;;5.13;;
70270;SDS011;57680;54.292;18.598;2023-04-19T12:02:09;17.00;;;5.78;;
70270;SDS011;57680;54.292;18.598;2023-04-19T12:04:35;13.75;;;4.90;;
70270;SDS011;57680;54.292;18.598;2023-04-19T12:07:02;13.32;;;5.43;;
70270;SDS011;57680;54.292;18.598;2023-04-19T12:09:28;13.33;;;5.20;;
70270;SDS011;57680;54.292;18.598;2023-04-19T12:11:54;13.75;;;5.55;;
70270;SDS011;57680;54.292;18.598;2023-04-19T12:14:20;16.47;;;5.17;;
70270;SDS011;57680;54.292;18.598;2023-04-19T12:19:36;12.25;;;5.00;;
70270;SDS011;57680;54.292;18.598;2023-04-19T12:22:16;19.87;;;5.50;;
70270;SDS011;57680;54.292;18.598;2023-04-19T12:24:42;15.80;;;6.05;;
70270;SDS011;57680;54.292;18.598;2023-04-19T12:27:08;14.83;;;5.87;;
70270;SDS011;57680;54.292;18.598;2023-04-19T12:29:34;16.45;;;5.25;;
70270;SDS011;57680;54.292;18.598;2023-04-19T12:32:00;19.35;;;5.35;;
70270;SDS011;57680;54.292;18.598;2023-04-19T12:34:25;14.73;;;5.57;;
70270;SDS011;57680;54.292;18.598;2023-04-19T12:36:51;13.77;;;5.38;;
70270;SDS011;57680;54.292;18.598;2023-04-19T12:39:16;13.13;;;4.43;;
70270;SDS011;57680;54.292;18.598;2023-04-19T12:41:42;12.90;;;4.60;;
70270;SDS011;57680;54.292;18.598;2023-04-19T12:44:07;12.60;;;4.30;;
70270;SDS011;57680;54.292;18.598;2023-04-19T12:46:32;14.00;;;4.17;;
70270;SDS011;57680;54.292;18.598;2023-04-19T12:48:58;11.98;;;4.60;;
70270;SDS011;57680;54.292;18.598;2023-04-19T12:51:23;13.27;;;4.50;;
70270;SDS011;57680;54.292;18.598;2023-04-19T12:53:48;26.37;;;7.60;;
70270;SDS011;57680;54.292;18.598;2023-04-19T12:56:14;14.17;;;5.03;;
70270;SDS011;57680;54.292;18.598;2023-04-19T12:58:40;13.32;;;4.80;;
70270;SDS011;57680;54.292;18.598;2023-04-19T13:01:06;11.90;;;4.40;;
70270;SDS011;57680;54.292;18.598;2023-04-19T13:03:31;12.95;;;4.57;;
70270;SDS011;57680;54.292;18.598;2023-04-19T13:05:56;15.33;;;4.73;;
70270;SDS011;57680;54.292;18.598;2023-04-19T13:08:22;12.27;;;4.63;;
70270;SDS011;57680;54.292;18.598;2023-04-19T13:10:47;16.40;;;4.63;;
70270;SDS011;57680;54.292;18.598;2023-04-19T13:13:13;14.07;;;4.80;;
70270;SDS011;57680;54.292;18.598;2023-04-19T13:15:38;11.98;;;4.47;;
70270;SDS011;57680;54.292;18.598;2023-04-19T13:18:03;10.73;;;4.23;;
70270;SDS011;57680;54.292;18.598;2023-04-19T13:20:29;12.60;;;4.40;;
70270;SDS011;57680;54.292;18.598;2023-04-19T13:22:54;12.67;;;4.83;;
70270;SDS011;57680;54.292;18.598;2023-04-19T13:25:20;14.30;;;4.80;;
70270;SDS011;57680;54.292;18.598;2023-04-19T13:27:45;21.23;;;5.03;;
70270;SDS011;57680;54.292;18.598;2023-04-19T13:30:10;14.53;;;5.43;;
70270;SDS011;57680;54.292;18.598;2023-04-19T13:32:36;10.80;;;4.40;;
70270;SDS011;57680;54.292;18.598;2023-04-19T13:35:01;11.53;;;4.80;;
70270;SDS011;57680;54.292;18.598;2023-04-19T13:37:27;12.82;;;4.53;;
70270;SDS011;57680;54.292;18.598;2023-04-19T13:39:52;12.97;;;4.57;;
70270;SDS011;57680;54.292;18.598;2023-04-19T13:42:18;14.27;;;4.63;;
70270;SDS011;57680;54.292;18.598;2023-04-19T13:44:43;14.17;;;4.87;;
70270;SDS011;57680;54.292;18.598;2023-04-19T13:47:09;14.87;;;4.60;;
70270;SDS011;57680;54.292;18.598;2023-04-19T13:49:34;15.88;;;5.28;;
70270;SDS011;57680;54.292;18.598;2023-04-19T13:51:59;14.13;;;5.33;;
70270;SDS011;57680;54.292;18.598;2023-04-19T13:54:25;14.50;;;5.00;;
70270;SDS011;57680;54.292;18.598;2023-04-19T13:56:50;13.17;;;5.63;;
70270;SDS011;57680;54.292;18.598;2023-04-19T13:59:15;15.20;;;5.40;;
70270;SDS011;57680;54.292;18.598;2023-04-19T14:01:41;17.50;;;5.40;;
70270;SDS011;57680;54.292;18.598;2023-04-19T14:04:06;19.53;;;7.23;;
70270;SDS011;57680;54.292;18.598;2023-04-19T14:06:31;17.50;;;6.57;;
70270;SDS011;57680;54.292;18.598;2023-04-19T14:08:57;24.20;;;9.40;;
70270;SDS011;57680;54.292;18.598;2023-04-19T14:11:23;20.73;;;7.20;;
70270;SDS011;57680;54.292;18.598;2023-04-19T14:13:49;33.60;;;9.23;;
70270;SDS011;57680;54.292;18.598;2023-04-19T14:16:15;22.80;;;6.70;;
70270;SDS011;57680;54.292;18.598;2023-04-19T14:18:40;24.80;;;8.90;;
70270;SDS011;57680;54.292;18.598;2023-04-19T14:21:05;18.70;;;4.53;;
70270;SDS011;57680;54.292;18.598;2023-04-19T14:23:33;13.43;;;4.93;;
70270;SDS011;57680;54.292;18.598;2023-04-19T14:25:59;15.80;;;5.20;;
70270;SDS011;57680;54.292;18.598;2023-04-19T14:28:24;23.63;;;6.57;;
70270;SDS011;57680;54.292;18.598;2023-04-19T14:30:50;18.03;;;5.60;;
70270;SDS011;57680;54.292;18.598;2023-04-19T14:33:15;21.43;;;6.37;;